Airfield :
LOGIN :

Register | Disclaimer

   EN    FR    IT 

 










Legend :    VFR   Marginal VFR   IFR   Intensive IFR   Very Intensive IFR
Visi :
Ceiling :
>= 8 km
>= 3000ft
5 to 8 km
1000 to 3000 ft
1500m to 5 km
500 to 1000 ft
800 to 1500m
200 to 500 ft
< 800m
< 200 ft
Symbols :   Thunderstorms  Fog  Heavy snow  Heavy precipitations  Wind > 20 kt
SIGMETs :     Misc.  Thunderstorms  Icing  Turbulence  Mountain Waves  Volcanic Ashes







- Airport Elevation : 915 ft
- IATA code : LUG


LSZA - Lugano

CURRENT METAR :
  • 222320Z AUTO VRB02KT CAVOK 24/18 Q1017

EXPIRED METARs :
  • 222250Z AUTO 21003KT 160V290 CAVOK 24/19 Q1017
  • 222220Z AUTO VRB01KT CAVOK 24/19 Q1017
  • 222150Z AUTO VRB02KT 6000 NCD 24/20 Q1017
  • 222120Z AUTO VRB02KT CAVOK 25/20 Q1017
  • 222050Z AUTO VRB02KT 9999 NCD 25/21 Q1017

TAF TAF LSZA
Valid from the 22 at 15:00 until the 23 at 00:00 UTC


221425Z 2215/2224 19007KT 9999 FEW060
PROB40
TEMPO 2215/2221 SCT060TCU
PROB30
TEMPO 2218/2224 4000 TSRA SCT060CB
ATIS : +41 22 417 40 88
No reported NOTAMs for that airfield.



MET'MAP, your aeronautical weather chart ! - Copyright ORBIFLY December 2007 - Disclaimer

ORBIFLY MET'MAP TEAM :

Programming & Development : Alexandra Zaïnal
Concept & Development : Baudouin d'Aumeries
Co-Development & Prog : Marc-Olivier Méhu
Technical & hardware support : Manuel Goepfert

Contact : metmap@orbifly.com




SOURCES & CREDITS :

   NOAA